sensor_id;sensor_type;location;lat;lon;timestamp;P1;durP1;ratioP1;P2;durP2;ratioP2
20241;SDS011;10279;46.388;8.116;2023-07-02T00:00:06;2.42;;;2.22;;
20241;SDS011;10279;46.388;8.116;2023-07-02T00:02:34;3.90;;;2.28;;
20241;SDS011;10279;46.388;8.116;2023-07-02T00:05:02;2.30;;;2.10;;
20241;SDS011;10279;46.388;8.116;2023-07-02T00:07:30;2.75;;;2.08;;
20241;SDS011;10279;46.388;8.116;2023-07-02T00:09:58;2.42;;;2.15;;
20241;SDS011;10279;46.388;8.116;2023-07-02T00:12:25;2.45;;;1.75;;
20241;SDS011;10279;46.388;8.116;2023-07-02T00:14:53;3.17;;;2.42;;
20241;SDS011;10279;46.388;8.116;2023-07-02T00:17:20;2.60;;;2.22;;
20241;SDS011;10279;46.388;8.116;2023-07-02T00:19:48;5.10;;;2.25;;
20241;SDS011;10279;46.388;8.116;2023-07-02T00:22:19;2.65;;;2.00;;
20241;SDS011;10279;46.388;8.116;2023-07-02T00:24:46;3.75;;;2.33;;
20241;SDS011;10279;46.388;8.116;2023-07-02T00:27:14;1.73;;;1.60;;
20241;SDS011;10279;46.388;8.116;2023-07-02T00:29:41;2.42;;;2.05;;
20241;SDS011;10279;46.388;8.116;2023-07-02T00:32:09;2.38;;;1.95;;
20241;SDS011;10279;46.388;8.116;2023-07-02T00:34:36;3.40;;;2.22;;
20241;SDS011;10279;46.388;8.116;2023-07-02T00:37:04;3.22;;;2.10;;
20241;SDS011;10279;46.388;8.116;2023-07-02T00:39:31;1.88;;;1.77;;
20241;SDS011;10279;46.388;8.116;2023-07-02T00:42:03;4.05;;;1.98;;
20241;SDS011;10279;46.388;8.116;2023-07-02T00:44:31;2.03;;;1.83;;
20241;SDS011;10279;46.388;8.116;2023-07-02T00:46:58;5.15;;;2.38;;
20241;SDS011;10279;46.388;8.116;2023-07-02T00:49:26;3.17;;;2.67;;
20241;SDS011;10279;46.388;8.116;2023-07-02T00:51:54;1.83;;;1.73;;
20241;SDS011;10279;46.388;8.116;2023-07-02T00:54:22;2.83;;;1.67;;
20241;SDS011;10279;46.388;8.116;2023-07-02T00:56:49;2.05;;;1.85;;
20241;SDS011;10279;46.388;8.116;2023-07-02T00:59:17;4.97;;;1.85;;
20241;SDS011;10279;46.388;8.116;2023-07-02T01:01:44;3.05;;;1.98;;
20241;SDS011;10279;46.388;8.116;2023-07-02T01:04:17;2.80;;;1.77;;
20241;SDS011;10279;46.388;8.116;2023-07-02T01:06:44;2.63;;;2.15;;
20241;SDS011;10279;46.388;8.116;2023-07-02T01:09:12;2.13;;;1.92;;
20241;SDS011;10279;46.388;8.116;2023-07-02T01:11:40;2.42;;;1.90;;
20241;SDS011;10279;46.388;8.116;2023-07-02T01:14:11;2.08;;;1.60;;
20241;SDS011;10279;46.388;8.116;2023-07-02T01:16:40;4.10;;;2.05;;
20241;SDS011;10279;46.388;8.116;2023-07-02T01:19:21;2.15;;;1.73;;
20241;SDS011;10279;46.388;8.116;2023-07-02T01:21:49;2.22;;;2.03;;
20241;SDS011;10279;46.388;8.116;2023-07-02T01:24:17;3.67;;;2.33;;
20241;SDS011;10279;46.388;8.116;2023-07-02T01:26:45;2.10;;;1.90;;
20241;SDS011;10279;46.388;8.116;2023-07-02T01:29:16;2.17;;;1.83;;
20241;SDS011;10279;46.388;8.116;2023-07-02T01:31:44;3.47;;;2.08;;
20241;SDS011;10279;46.388;8.116;2023-07-02T01:34:12;1.75;;;1.65;;
20241;SDS011;10279;46.388;8.116;2023-07-02T01:36:40;5.00;;;1.73;;
20241;SDS011;10279;46.388;8.116;2023-07-02T01:39:07;2.67;;;1.80;;
20241;SDS011;10279;46.388;8.116;2023-07-02T01:41:45;2.45;;;2.25;;
20241;SDS011;10279;46.388;8.116;2023-07-02T01:44:12;3.35;;;2.25;;
20241;SDS011;10279;46.388;8.116;2023-07-02T01:46:40;1.95;;;1.75;;
20241;SDS011;10279;46.388;8.116;2023-07-02T01:49:08;4.55;;;2.30;;
20241;SDS011;10279;46.388;8.116;2023-07-02T01:51:35;2.58;;;2.15;;
20241;SDS011;10279;46.388;8.116;2023-07-02T01:54:04;4.97;;;2.10;;
20241;SDS011;10279;46.388;8.116;2023-07-02T01:56:32;2.63;;;2.13;;
20241;SDS011;10279;46.388;8.116;2023-07-02T01:58:59;3.78;;;2.38;;
20241;SDS011;10279;46.388;8.116;2023-07-02T02:01:27;3.22;;;2.22;;
20241;SDS011;10279;46.388;8.116;2023-07-02T02:03:54;3.53;;;2.00;;
20241;SDS011;10279;46.388;8.116;2023-07-02T02:06:22;3.65;;;2.30;;
20241;SDS011;10279;46.388;8.116;2023-07-02T02:08:49;4.00;;;2.30;;
20241;SDS011;10279;46.388;8.116;2023-07-02T02:11:17;2.42;;;2.20;;
20241;SDS011;10279;46.388;8.116;2023-07-02T02:13:44;3.78;;;2.28;;
20241;SDS011;10279;46.388;8.116;2023-07-02T02:16:12;3.10;;;2.20;;
20241;SDS011;10279;46.388;8.116;2023-07-02T02:18:39;5.13;;;2.75;;
20241;SDS011;10279;46.388;8.116;2023-07-02T02:21:07;3.40;;;2.45;;
20241;SDS011;10279;46.388;8.116;2023-07-02T02:23:34;2.40;;;1.90;;
20241;SDS011;10279;46.388;8.116;2023-07-02T02:26:02;3.65;;;2.20;;
20241;SDS011;10279;46.388;8.116;2023-07-02T02:28:29;2.53;;;2.17;;
20241;SDS011;10279;46.388;8.116;2023-07-02T02:30:57;2.65;;;2.40;;
20241;SDS011;10279;46.388;8.116;2023-07-02T02:33:24;3.75;;;2.13;;
20241;SDS011;10279;46.388;8.116;2023-07-02T02:35:52;2.75;;;1.90;;
20241;SDS011;10279;46.388;8.116;2023-07-02T02:38:19;3.28;;;2.92;;
20241;SDS011;10279;46.388;8.116;2023-07-02T02:40:47;4.15;;;2.28;;
20241;SDS011;10279;46.388;8.116;2023-07-02T02:43:15;2.60;;;2.20;;
20241;SDS011;10279;46.388;8.116;2023-07-02T02:45:45;4.07;;;2.50;;
20241;SDS011;10279;46.388;8.116;2023-07-02T02:48:12;2.90;;;2.35;;
20241;SDS011;10279;46.388;8.116;2023-07-02T02:50:40;3.53;;;2.15;;
20241;SDS011;10279;46.388;8.116;2023-07-02T02:53:09;3.20;;;2.13;;
20241;SDS011;10279;46.388;8.116;2023-07-02T02:55:37;2.70;;;2.35;;
20241;SDS011;10279;46.388;8.116;2023-07-02T02:58:05;2.95;;;2.17;;
20241;SDS011;10279;46.388;8.116;2023-07-02T03:00:32;3.03;;;1.90;;
20241;SDS011;10279;46.388;8.116;2023-07-02T03:03:00;2.50;;;1.90;;
20241;SDS011;10279;46.388;8.116;2023-07-02T03:05:29;2.47;;;2.28;;
20241;SDS011;10279;46.388;8.116;2023-07-02T03:07:57;3.05;;;2.13;;
20241;SDS011;10279;46.388;8.116;2023-07-02T03:10:24;3.03;;;2.22;;
20241;SDS011;10279;46.388;8.116;2023-07-02T03:12:52;4.22;;;2.38;;
20241;SDS011;10279;46.388;8.116;2023-07-02T03:15:19;2.53;;;2.13;;
20241;SDS011;10279;46.388;8.116;2023-07-02T03:17:47;1.98;;;1.80;;
20241;SDS011;10279;46.388;8.116;2023-07-02T03:20:14;2.60;;;2.40;;
20241;SDS011;10279;46.388;8.116;2023-07-02T03:22:43;3.55;;;2.40;;
20241;SDS011;10279;46.388;8.116;2023-07-02T03:25:10;2.88;;;2.50;;
20241;SDS011;10279;46.388;8.116;2023-07-02T03:27:38;2.95;;;2.53;;
20241;SDS011;10279;46.388;8.116;2023-07-02T03:30:06;3.53;;;2.53;;
20241;SDS011;10279;46.388;8.116;2023-07-02T03:32:33;2.15;;;2.00;;
20241;SDS011;10279;46.388;8.116;2023-07-02T03:35:01;2.47;;;1.98;;
20241;SDS011;10279;46.388;8.116;2023-07-02T03:37:28;3.30;;;2.50;;
20241;SDS011;10279;46.388;8.116;2023-07-02T03:39:56;2.92;;;2.63;;
20241;SDS011;10279;46.388;8.116;2023-07-02T03:42:25;4.63;;;2.97;;
20241;SDS011;10279;46.388;8.116;2023-07-02T03:44:52;4.05;;;3.05;;
20241;SDS011;10279;46.388;8.116;2023-07-02T03:47:20;3.95;;;2.80;;
20241;SDS011;10279;46.388;8.116;2023-07-02T03:49:47;5.68;;;2.50;;
20241;SDS011;10279;46.388;8.116;2023-07-02T03:52:15;3.25;;;2.35;;
20241;SDS011;10279;46.388;8.116;2023-07-02T03:54:43;3.70;;;2.83;;
20241;SDS011;10279;46.388;8.116;2023-07-02T03:57:10;2.75;;;2.45;;
20241;SDS011;10279;46.388;8.116;2023-07-02T03:59:38;3.50;;;2.53;;
20241;SDS011;10279;46.388;8.116;2023-07-02T04:02:05;3.10;;;2.50;;
20241;SDS011;10279;46.388;8.116;2023-07-02T04:04:33;4.10;;;2.53;;
20241;SDS011;10279;46.388;8.116;2023-07-02T04:07:01;3.17;;;2.10;;
20241;SDS011;10279;46.388;8.116;2023-07-02T04:09:28;3.38;;;2.40;;
20241;SDS011;10279;46.388;8.116;2023-07-02T04:11:59;4.45;;;2.45;;
20241;SDS011;10279;46.388;8.116;2023-07-02T04:14:27;2.60;;;2.40;;
20241;SDS011;10279;46.388;8.116;2023-07-02T04:16:54;2.88;;;2.40;;
20241;SDS011;10279;46.388;8.116;2023-07-02T04:19:21;2.33;;;2.13;;
20241;SDS011;10279;46.388;8.116;2023-07-02T04:21:49;5.63;;;2.47;;
20241;SDS011;10279;46.388;8.116;2023-07-02T04:24:17;3.08;;;2.38;;
20241;SDS011;10279;46.388;8.116;2023-07-02T04:26:45;4.35;;;2.47;;
20241;SDS011;10279;46.388;8.116;2023-07-02T04:29:32;4.55;;;2.70;;
20241;SDS011;10279;46.388;8.116;2023-07-02T04:31:59;2.92;;;2.40;;
20241;SDS011;10279;46.388;8.116;2023-07-02T04:34:27;3.72;;;2.13;;
20241;SDS011;10279;46.388;8.116;2023-07-02T04:36:55;3.30;;;2.47;;
20241;SDS011;10279;46.388;8.116;2023-07-02T04:39:22;2.80;;;2.50;;
20241;SDS011;10279;46.388;8.116;2023-07-02T04:41:49;3.40;;;2.60;;
20241;SDS011;10279;46.388;8.116;2023-07-02T04:44:19;3.20;;;2.90;;
20241;SDS011;10279;46.388;8.116;2023-07-02T04:46:59;2.90;;;2.40;;
20241;SDS011;10279;46.388;8.116;2023-07-02T04:49:27;5.65;;;3.13;;
20241;SDS011;10279;46.388;8.116;2023-07-02T04:51:55;5.28;;;2.55;;
20241;SDS011;10279;46.388;8.116;2023-07-02T04:54:22;3.15;;;2.55;;
20241;SDS011;10279;46.388;8.116;2023-07-02T04:56:50;3.20;;;2.78;;
20241;SDS011;10279;46.388;8.116;2023-07-02T04:59:19;4.57;;;2.63;;
20241;SDS011;10279;46.388;8.116;2023-07-02T05:01:47;4.30;;;2.67;;
20241;SDS011;10279;46.388;8.116;2023-07-02T05:04:14;6.03;;;2.58;;
20241;SDS011;10279;46.388;8.116;2023-07-02T05:06:42;3.22;;;2.28;;
20241;SDS011;10279;46.388;8.116;2023-07-02T05:09:09;2.85;;;2.50;;
20241;SDS011;10279;46.388;8.116;2023-07-02T05:11:37;4.43;;;2.92;;
20241;SDS011;10279;46.388;8.116;2023-07-02T05:14:04;5.72;;;2.63;;
20241;SDS011;10279;46.388;8.116;2023-07-02T05:16:32;5.20;;;2.75;;
20241;SDS011;10279;46.388;8.116;2023-07-02T05:18:59;3.08;;;2.28;;
20241;SDS011;10279;46.388;8.116;2023-07-02T05:21:27;2.67;;;2.42;;
20241;SDS011;10279;46.388;8.116;2023-07-02T05:23:54;2.92;;;2.25;;
20241;SDS011;10279;46.388;8.116;2023-07-02T05:26:22;2.88;;;2.53;;
20241;SDS011;10279;46.388;8.116;2023-07-02T05:28:49;3.30;;;2.88;;
20241;SDS011;10279;46.388;8.116;2023-07-02T05:31:17;3.05;;;2.50;;
20241;SDS011;10279;46.388;8.116;2023-07-02T05:33:44;5.53;;;2.90;;
20241;SDS011;10279;46.388;8.116;2023-07-02T05:36:12;7.47;;;3.40;;
20241;SDS011;10279;46.388;8.116;2023-07-02T05:38:39;5.38;;;2.90;;
20241;SDS011;10279;46.388;8.116;2023-07-02T05:41:07;3.10;;;2.80;;
20241;SDS011;10279;46.388;8.116;2023-07-02T05:43:34;6.80;;;2.72;;
20241;SDS011;10279;46.388;8.116;2023-07-02T05:46:02;4.60;;;3.20;;
20241;SDS011;10279;46.388;8.116;2023-07-02T05:48:29;6.68;;;2.97;;
20241;SDS011;10279;46.388;8.116;2023-07-02T05:50:57;3.38;;;2.95;;
20241;SDS011;10279;46.388;8.116;2023-07-02T05:53:27;3.67;;;2.88;;
20241;SDS011;10279;46.388;8.116;2023-07-02T05:55:54;5.80;;;3.13;;
20241;SDS011;10279;46.388;8.116;2023-07-02T05:58:22;4.85;;;2.72;;
20241;SDS011;10279;46.388;8.116;2023-07-02T06:01:04;4.20;;;2.95;;
20241;SDS011;10279;46.388;8.116;2023-07-02T06:03:32;3.65;;;3.25;;
20241;SDS011;10279;46.388;8.116;2023-07-02T06:06:00;3.40;;;3.10;;
20241;SDS011;10279;46.388;8.116;2023-07-02T06:08:28;6.60;;;3.22;;
20241;SDS011;10279;46.388;8.116;2023-07-02T06:10:55;4.57;;;3.40;;
20241;SDS011;10279;46.388;8.116;2023-07-02T06:13:22;5.97;;;3.50;;
20241;SDS011;10279;46.388;8.116;2023-07-02T06:15:50;4.70;;;3.30;;
20241;SDS011;10279;46.388;8.116;2023-07-02T06:18:18;3.70;;;3.08;;
20241;SDS011;10279;46.388;8.116;2023-07-02T06:20:45;4.07;;;3.67;;
20241;SDS011;10279;46.388;8.116;2023-07-02T06:23:13;3.88;;;3.35;;
20241;SDS011;10279;46.388;8.116;2023-07-02T06:25:41;4.32;;;3.53;;
20241;SDS011;10279;46.388;8.116;2023-07-02T06:28:09;3.92;;;3.53;;
20241;SDS011;10279;46.388;8.116;2023-07-02T06:30:37;3.88;;;3.47;;
20241;SDS011;10279;46.388;8.116;2023-07-02T06:33:04;3.63;;;2.90;;
20241;SDS011;10279;46.388;8.116;2023-07-02T06:35:31;4.85;;;3.53;;
20241;SDS011;10279;46.388;8.116;2023-07-02T06:37:59;4.30;;;3.90;;
20241;SDS011;10279;46.388;8.116;2023-07-02T06:40:26;4.53;;;3.60;;
20241;SDS011;10279;46.388;8.116;2023-07-02T06:42:54;4.38;;;3.75;;
20241;SDS011;10279;46.388;8.116;2023-07-02T06:45:21;4.43;;;3.67;;
20241;SDS011;10279;46.388;8.116;2023-07-02T06:47:49;5.00;;;3.08;;
20241;SDS011;10279;46.388;8.116;2023-07-02T06:50:17;5.13;;;3.05;;
20241;SDS011;10279;46.388;8.116;2023-07-02T06:52:45;3.50;;;3.20;;
20241;SDS011;10279;46.388;8.116;2023-07-02T06:55:12;4.70;;;3.70;;
20241;SDS011;10279;46.388;8.116;2023-07-02T06:57:43;3.75;;;3.35;;
20241;SDS011;10279;46.388;8.116;2023-07-02T07:00:12;4.05;;;3.65;;
20241;SDS011;10279;46.388;8.116;2023-07-02T07:02:39;4.82;;;3.92;;
20241;SDS011;10279;46.388;8.116;2023-07-02T07:05:07;4.38;;;3.78;;
20241;SDS011;10279;46.388;8.116;2023-07-02T07:07:36;4.88;;;3.80;;
20241;SDS011;10279;46.388;8.116;2023-07-02T07:10:04;4.40;;;3.60;;
20241;SDS011;10279;46.388;8.116;2023-07-02T07:12:31;5.78;;;4.15;;
20241;SDS011;10279;46.388;8.116;2023-07-02T07:15:02;4.72;;;3.67;;
20241;SDS011;10279;46.388;8.116;2023-07-02T07:17:30;4.10;;;3.65;;
20241;SDS011;10279;46.388;8.116;2023-07-02T07:19:58;4.95;;;4.00;;
20241;SDS011;10279;46.388;8.116;2023-07-02T07:22:25;4.10;;;3.70;;
20241;SDS011;10279;46.388;8.116;2023-07-02T07:24:53;5.53;;;3.90;;
20241;SDS011;10279;46.388;8.116;2023-07-02T07:27:20;4.32;;;3.75;;
20241;SDS011;10279;46.388;8.116;2023-07-02T07:29:48;4.50;;;4.05;;
20241;SDS011;10279;46.388;8.116;2023-07-02T07:32:15;5.68;;;4.55;;
20241;SDS011;10279;46.388;8.116;2023-07-02T07:34:43;5.32;;;4.05;;
20241;SDS011;10279;46.388;8.116;2023-07-02T07:37:10;3.35;;;3.05;;
20241;SDS011;10279;46.388;8.116;2023-07-02T07:39:38;6.47;;;4.03;;
20241;SDS011;10279;46.388;8.116;2023-07-02T07:42:05;3.90;;;3.50;;
20241;SDS011;10279;46.388;8.116;2023-07-02T07:44:33;4.15;;;3.33;;
20241;SDS011;10279;46.388;8.116;2023-07-02T07:47:03;4.28;;;3.67;;
20241;SDS011;10279;46.388;8.116;2023-07-02T07:49:31;4.65;;;3.78;;
20241;SDS011;10279;46.388;8.116;2023-07-02T07:51:59;4.30;;;3.58;;
20241;SDS011;10279;46.388;8.116;2023-07-02T07:54:26;5.88;;;3.95;;
20241;SDS011;10279;46.388;8.116;2023-07-02T07:56:54;4.50;;;3.72;;
20241;SDS011;10279;46.388;8.116;2023-07-02T07:59:21;4.78;;;3.72;;
20241;SDS011;10279;46.388;8.116;2023-07-02T08:01:49;4.03;;;3.60;;
20241;SDS011;10279;46.388;8.116;2023-07-02T08:04:17;4.68;;;3.78;;
20241;SDS011;10279;46.388;8.116;2023-07-02T08:06:44;3.85;;;3.50;;
20241;SDS011;10279;46.388;8.116;2023-07-02T08:09:12;4.20;;;3.80;;
20241;SDS011;10279;46.388;8.116;2023-07-02T08:11:39;4.90;;;4.15;;
20241;SDS011;10279;46.388;8.116;2023-07-02T08:14:06;4.28;;;3.35;;
20241;SDS011;10279;46.388;8.116;2023-07-02T08:16:34;4.53;;;3.88;;
20241;SDS011;10279;46.388;8.116;2023-07-02T08:19:05;4.13;;;3.72;;
20241;SDS011;10279;46.388;8.116;2023-07-02T08:21:32;4.68;;;3.40;;
20241;SDS011;10279;46.388;8.116;2023-07-02T08:24:00;4.30;;;3.60;;
20241;SDS011;10279;46.388;8.116;2023-07-02T08:26:27;4.65;;;3.75;;
20241;SDS011;10279;46.388;8.116;2023-07-02T08:28:55;4.45;;;3.53;;
20241;SDS011;10279;46.388;8.116;2023-07-02T08:31:22;4.25;;;3.83;;
20241;SDS011;10279;46.388;8.116;2023-07-02T08:33:50;4.70;;;3.80;;
20241;SDS011;10279;46.388;8.116;2023-07-02T08:36:18;4.03;;;3.47;;
20241;SDS011;10279;46.388;8.116;2023-07-02T08:38:45;4.65;;;3.40;;
20241;SDS011;10279;46.388;8.116;2023-07-02T08:41:13;4.35;;;3.92;;
20241;SDS011;10279;46.388;8.116;2023-07-02T08:43:40;3.80;;;3.28;;
20241;SDS011;10279;46.388;8.116;2023-07-02T08:46:08;5.43;;;4.30;;
20241;SDS011;10279;46.388;8.116;2023-07-02T08:48:36;5.97;;;4.10;;
20241;SDS011;10279;46.388;8.116;2023-07-02T08:51:05;4.50;;;3.45;;
20241;SDS011;10279;46.388;8.116;2023-07-02T08:53:32;4.38;;;3.97;;
20241;SDS011;10279;46.388;8.116;2023-07-02T08:56:02;5.50;;;3.78;;
20241;SDS011;10279;46.388;8.116;2023-07-02T08:58:30;4.65;;;3.70;;
20241;SDS011;10279;46.388;8.116;2023-07-02T09:01:07;5.38;;;4.03;;
20241;SDS011;10279;46.388;8.116;2023-07-02T09:03:36;4.93;;;4.25;;
20241;SDS011;10279;46.388;8.116;2023-07-02T09:06:07;3.90;;;3.50;;
20241;SDS011;10279;46.388;8.116;2023-07-02T09:08:35;4.75;;;3.47;;
20241;SDS011;10279;46.388;8.116;2023-07-02T09:11:09;4.47;;;3.70;;
20241;SDS011;10279;46.388;8.116;2023-07-02T09:13:44;4.88;;;3.70;;
20241;SDS011;10279;46.388;8.116;2023-07-02T09:18:57;5.55;;;3.75;;
20241;SDS011;10279;46.388;8.116;2023-07-02T09:21:28;6.25;;;3.65;;
20241;SDS011;10279;46.388;8.116;2023-07-02T09:23:55;4.55;;;3.65;;
20241;SDS011;10279;46.388;8.116;2023-07-02T09:26:23;5.15;;;4.05;;
20241;SDS011;10279;46.388;8.116;2023-07-02T09:28:50;4.28;;;3.40;;
20241;SDS011;10279;46.388;8.116;2023-07-02T09:31:27;4.00;;;3.55;;
20241;SDS011;10279;46.388;8.116;2023-07-02T09:34:00;5.32;;;3.85;;
20241;SDS011;10279;46.388;8.116;2023-07-02T09:36:29;4.15;;;3.30;;
20241;SDS011;10279;46.388;8.116;2023-07-02T09:38:56;3.40;;;3.10;;
20241;SDS011;10279;46.388;8.116;2023-07-02T09:41:24;4.35;;;3.33;;
20241;SDS011;10279;46.388;8.116;2023-07-02T09:43:51;3.40;;;3.10;;
20241;SDS011;10279;46.388;8.116;2023-07-02T09:46:19;4.45;;;3.17;;
20241;SDS011;10279;46.388;8.116;2023-07-02T09:48:47;3.45;;;3.05;;
20241;SDS011;10279;46.388;8.116;2023-07-02T09:51:15;3.78;;;3.33;;
20241;SDS011;10279;46.388;8.116;2023-07-02T09:53:42;3.30;;;2.95;;
20241;SDS011;10279;46.388;8.116;2023-07-02T09:56:10;3.78;;;2.88;;
20241;SDS011;10279;46.388;8.116;2023-07-02T09:58:38;3.22;;;2.90;;
20241;SDS011;10279;46.388;8.116;2023-07-02T10:01:05;3.05;;;2.75;;
20241;SDS011;10279;46.388;8.116;2023-07-02T10:03:33;3.65;;;2.58;;
20241;SDS011;10279;46.388;8.116;2023-07-02T10:06:04;3.33;;;3.03;;
20241;SDS011;10279;46.388;8.116;2023-07-02T10:08:31;3.28;;;2.97;;
20241;SDS011;10279;46.388;8.116;2023-07-02T10:11:12;4.85;;;2.90;;
20241;SDS011;10279;46.388;8.116;2023-07-02T10:13:39;3.00;;;2.70;;
20241;SDS011;10279;46.388;8.116;2023-07-02T10:16:08;2.63;;;2.20;;
20241;SDS011;10279;46.388;8.116;2023-07-02T10:18:35;3.72;;;2.90;;
20241;SDS011;10279;46.388;8.116;2023-07-02T10:21:16;3.30;;;2.50;;
20241;SDS011;10279;46.388;8.116;2023-07-02T10:23:43;3.78;;;3.38;;
20241;SDS011;10279;46.388;8.116;2023-07-02T10:28:42;3.03;;;2.72;;
20241;SDS011;10279;46.388;8.116;2023-07-02T10:31:20;3.38;;;3.03;;
20241;SDS011;10279;46.388;8.116;2023-07-02T10:33:47;6.47;;;2.90;;
20241;SDS011;10279;46.388;8.116;2023-07-02T10:36:18;4.20;;;3.13;;
20241;SDS011;10279;46.388;8.116;2023-07-02T10:38:47;4.53;;;2.90;;
20241;SDS011;10279;46.388;8.116;2023-07-02T10:41:24;3.47;;;3.17;;
20241;SDS011;10279;46.388;8.116;2023-07-02T10:43:52;2.97;;;2.60;;
20241;SDS011;10279;46.388;8.116;2023-07-02T10:46:23;3.33;;;3.03;;
20241;SDS011;10279;46.388;8.116;2023-07-02T10:48:51;3.17;;;2.92;;
20241;SDS011;10279;46.388;8.116;2023-07-02T10:51:19;3.05;;;2.70;;
20241;SDS011;10279;46.388;8.116;2023-07-02T10:54:00;4.60;;;2.88;;
20241;SDS011;10279;46.388;8.116;2023-07-02T10:56:28;2.85;;;2.65;;
20241;SDS011;10279;46.388;8.116;2023-07-02T10:58:56;4.63;;;2.85;;
20241;SDS011;10279;46.388;8.116;2023-07-02T11:04:01;3.63;;;2.92;;
20241;SDS011;10279;46.388;8.116;2023-07-02T11:06:29;2.83;;;2.60;;
20241;SDS011;10279;46.388;8.116;2023-07-02T11:08:57;3.42;;;3.13;;
20241;SDS011;10279;46.388;8.116;2023-07-02T11:11:26;4.38;;;2.88;;
20241;SDS011;10279;46.388;8.116;2023-07-02T11:13:54;4.50;;;2.20;;
20241;SDS011;10279;46.388;8.116;2023-07-02T11:16:24;3.05;;;2.75;;
20241;SDS011;10279;46.388;8.116;2023-07-02T11:18:53;4.45;;;2.60;;
20241;SDS011;10279;46.388;8.116;2023-07-02T11:21:21;2.67;;;2.47;;
20241;SDS011;10279;46.388;8.116;2023-07-02T11:23:49;3.17;;;2.88;;
20241;SDS011;10279;46.388;8.116;2023-07-02T11:26:16;3.10;;;2.38;;
20241;SDS011;10279;46.388;8.116;2023-07-02T11:28:48;4.55;;;2.40;;
20241;SDS011;10279;46.388;8.116;2023-07-02T11:31:23;2.83;;;2.53;;
20241;SDS011;10279;46.388;8.116;2023-07-02T11:33:52;2.58;;;2.38;;
20241;SDS011;10279;46.388;8.116;2023-07-02T11:36:21;3.28;;;2.97;;
20241;SDS011;10279;46.388;8.116;2023-07-02T11:38:50;3.00;;;2.70;;
20241;SDS011;10279;46.388;8.116;2023-07-02T11:41:18;3.10;;;2.80;;
20241;SDS011;10279;46.388;8.116;2023-07-02T11:43:47;3.92;;;2.55;;
20241;SDS011;10279;46.388;8.116;2023-07-02T11:46:15;2.92;;;2.63;;
20241;SDS011;10279;46.388;8.116;2023-07-02T11:48:42;2.75;;;2.33;;
20241;SDS011;10279;46.388;8.116;2023-07-02T11:51:10;3.15;;;2.65;;
20241;SDS011;10279;46.388;8.116;2023-07-02T11:53:37;2.40;;;2.20;;
20241;SDS011;10279;46.388;8.116;2023-07-02T11:56:05;2.80;;;2.60;;
20241;SDS011;10279;46.388;8.116;2023-07-02T11:58:33;3.38;;;2.38;;
20241;SDS011;10279;46.388;8.116;2023-07-02T12:01:00;2.75;;;2.10;;
20241;SDS011;10279;46.388;8.116;2023-07-02T12:03:28;2.58;;;2.30;;
20241;SDS011;10279;46.388;8.116;2023-07-02T12:05:57;2.05;;;1.92;;
20241;SDS011;10279;46.388;8.116;2023-07-02T12:08:24;5.03;;;2.53;;
20241;SDS011;10279;46.388;8.116;2023-07-02T12:10:52;2.92;;;2.42;;
20241;SDS011;10279;46.388;8.116;2023-07-02T12:13:19;2.67;;;2.47;;
20241;SDS011;10279;46.388;8.116;2023-07-02T12:15:50;2.33;;;2.13;;
20241;SDS011;10279;46.388;8.116;2023-07-02T12:18:18;2.75;;;2.50;;
20241;SDS011;10279;46.388;8.116;2023-07-02T12:20:46;2.85;;;2.45;;
20241;SDS011;10279;46.388;8.116;2023-07-02T12:23:13;2.53;;;2.33;;
20241;SDS011;10279;46.388;8.116;2023-07-02T12:25:44;3.15;;;2.70;;
20241;SDS011;10279;46.388;8.116;2023-07-02T12:28:11;3.63;;;2.53;;
20241;SDS011;10279;46.388;8.116;2023-07-02T12:30:39;3.28;;;2.03;;
20241;SDS011;10279;46.388;8.116;2023-07-02T12:33:06;4.20;;;3.17;;
20241;SDS011;10279;46.388;8.116;2023-07-02T12:35:34;2.88;;;2.55;;
20241;SDS011;10279;46.388;8.116;2023-07-02T12:38:01;2.55;;;2.22;;
20241;SDS011;10279;46.388;8.116;2023-07-02T12:40:34;3.40;;;2.95;;
20241;SDS011;10279;46.388;8.116;2023-07-02T12:43:02;2.70;;;2.50;;
20241;SDS011;10279;46.388;8.116;2023-07-02T12:45:29;2.33;;;2.13;;
20241;SDS011;10279;46.388;8.116;2023-07-02T12:47:58;2.25;;;2.08;;
20241;SDS011;10279;46.388;8.116;2023-07-02T12:50:25;3.08;;;2.53;;
20241;SDS011;10279;46.388;8.116;2023-07-02T12:52:53;2.47;;;2.05;;
20241;SDS011;10279;46.388;8.116;2023-07-02T12:55:20;2.75;;;2.22;;
20241;SDS011;10279;46.388;8.116;2023-07-02T12:57:48;2.35;;;2.15;;
20241;SDS011;10279;46.388;8.116;2023-07-02T13:00:15;2.70;;;2.47;;
20241;SDS011;10279;46.388;8.116;2023-07-02T13:02:43;3.75;;;2.60;;
20241;SDS011;10279;46.388;8.116;2023-07-02T13:05:28;2.30;;;2.10;;
20241;SDS011;10279;46.388;8.116;2023-07-02T13:07:56;2.20;;;1.98;;
20241;SDS011;10279;46.388;8.116;2023-07-02T13:10:24;2.40;;;2.20;;
20241;SDS011;10279;46.388;8.116;2023-07-02T13:12:51;2.50;;;2.30;;
20241;SDS011;10279;46.388;8.116;2023-07-02T13:15:18;2.53;;;2.33;;
20241;SDS011;10279;46.388;8.116;2023-07-02T13:17:46;1.98;;;1.88;;
20241;SDS011;10279;46.388;8.116;2023-07-02T13:20:13;3.05;;;2.72;;
20241;SDS011;10279;46.388;8.116;2023-07-02T13:22:41;3.03;;;2.72;;
20241;SDS011;10279;46.388;8.116;2023-07-02T13:25:09;2.97;;;2.65;;
20241;SDS011;10279;46.388;8.116;2023-07-02T13:27:36;2.30;;;2.10;;
20241;SDS011;10279;46.388;8.116;2023-07-02T13:30:04;2.20;;;2.00;;
20241;SDS011;10279;46.388;8.116;2023-07-02T13:32:32;4.22;;;2.20;;
20241;SDS011;10279;46.388;8.116;2023-07-02T13:34:59;2.78;;;2.38;;
20241;SDS011;10279;46.388;8.116;2023-07-02T13:37:27;2.55;;;2.13;;
20241;SDS011;10279;46.388;8.116;2023-07-02T13:39:54;5.30;;;2.38;;
20241;SDS011;10279;46.388;8.116;2023-07-02T13:42:22;3.00;;;2.25;;
20241;SDS011;10279;46.388;8.116;2023-07-02T13:44:49;2.22;;;2.03;;
20241;SDS011;10279;46.388;8.116;2023-07-02T13:47:17;2.67;;;2.47;;
20241;SDS011;10279;46.388;8.116;2023-07-02T13:49:45;3.08;;;2.33;;
20241;SDS011;10279;46.388;8.116;2023-07-02T13:52:12;5.03;;;2.63;;
20241;SDS011;10279;46.388;8.116;2023-07-02T13:54:39;2.92;;;1.98;;
20241;SDS011;10279;46.388;8.116;2023-07-02T13:57:07;2.58;;;2.15;;
20241;SDS011;10279;46.388;8.116;2023-07-02T13:59:34;2.35;;;2.10;;
20241;SDS011;10279;46.388;8.116;2023-07-02T14:02:02;2.40;;;2.20;;
20241;SDS011;10279;46.388;8.116;2023-07-02T14:04:30;1.98;;;1.77;;
20241;SDS011;10279;46.388;8.116;2023-07-02T14:06:57;3.25;;;2.42;;
20241;SDS011;10279;46.388;8.116;2023-07-02T14:09:25;1.92;;;1.80;;
20241;SDS011;10279;46.388;8.116;2023-07-02T14:11:52;4.53;;;2.47;;
20241;SDS011;10279;46.388;8.116;2023-07-02T14:14:20;2.58;;;2.15;;
20241;SDS011;10279;46.388;8.116;2023-07-02T14:16:47;3.55;;;2.53;;
20241;SDS011;10279;46.388;8.116;2023-07-02T14:19:14;2.60;;;2.40;;
20241;SDS011;10279;46.388;8.116;2023-07-02T14:21:43;2.50;;;2.30;;
20241;SDS011;10279;46.388;8.116;2023-07-02T14:24:14;2.25;;;2.05;;
20241;SDS011;10279;46.388;8.116;2023-07-02T14:26:41;2.47;;;2.28;;
20241;SDS011;10279;46.388;8.116;2023-07-02T14:29:10;2.88;;;2.20;;
20241;SDS011;10279;46.388;8.116;2023-07-02T14:31:37;3.15;;;2.55;;
20241;SDS011;10279;46.388;8.116;2023-07-02T14:34:05;2.67;;;2.40;;
20241;SDS011;10279;46.388;8.116;2023-07-02T14:36:33;2.53;;;2.30;;
20241;SDS011;10279;46.388;8.116;2023-07-02T14:39:00;3.03;;;2.42;;
20241;SDS011;10279;46.388;8.116;2023-07-02T14:41:28;2.88;;;2.22;;
20241;SDS011;10279;46.388;8.116;2023-07-02T14:44:02;2.58;;;2.13;;
20241;SDS011;10279;46.388;8.116;2023-07-02T14:46:29;3.80;;;1.95;;
20241;SDS011;10279;46.388;8.116;2023-07-02T14:48:57;2.55;;;2.22;;
20241;SDS011;10279;46.388;8.116;2023-07-02T14:51:25;5.57;;;2.15;;
20241;SDS011;10279;46.388;8.116;2023-07-02T14:53:52;2.25;;;2.05;;
20241;SDS011;10279;46.388;8.116;2023-07-02T14:56:22;2.55;;;1.95;;
20241;SDS011;10279;46.388;8.116;2023-07-02T14:58:49;2.38;;;2.17;;
20241;SDS011;10279;46.388;8.116;2023-07-02T15:01:17;2.17;;;1.98;;